Zeynalabdin Tagiyev — 9HLD8 — position and weather

sailwx.info

Track history (hours):
 
Tides and Currents Weather Stations Pressure Air Temp Water Temp Dewpoint Dewpoint Depression Visibility Wind Speed Wind Dir Waves Ship Positions

Zeynalabdin Tagiyev

Last reported at 2017-Mar-27 13:33 UTC. Time now 2017-Mar-29 17:10 UTC.
Position N 37°33' E 025°22'.

Length 140 m; draft 3.7 m.

Type: Cargo ship. MMSI: 256107000.

Date/timePositionNaut miles runAvg speedWind from/ knotsBaromVisibWave heightAir tempDewpointWater temp
2017-Mar-27 13:33N 37°33' E 025°22'7 7.1
2017-Mar-27 12:33N 37°29' E 025°14'17 8.3
2017-Mar-27 10:32N 37°19' E 024°58'8 8.3
2017-Mar-27 09:33N 37°13' E 024°51'  
2017-Mar-24 02:15N 44°03' E 013°28'7 9.6
2017-Mar-24 01:28N 44°08' E 013°20'38 9.6
2017-Mar-23 21:33N 44°42' E 012°59'9 9.4
2017-Mar-23 20:33N 44°51' E 012°54'9 8.8
2017-Mar-23 19:33N 44°59' E 012°48'9 8.9
2017-Mar-23 18:33N 45°06' E 012°42'9 9.0
2017-Mar-23 17:33N 45°12' E 012°31'9 9.2
2017-Mar-23 16:33N 45°19' E 012°23'7 6.7
2017-Mar-23 15:33N 45°23' E 012°16'4 4.0
2017-Mar-23 14:32N 45°27' E 012°15'0 0.0
2017-Mar-23 13:31N 45°27' E 012°15'0 0.0
2017-Mar-23 12:29N 45°27' E 012°15'0 0.0
2017-Mar-23 11:32N 45°27' E 012°15'0 0.0
2017-Mar-23 10:32N 45°27' E 012°15'0 0.0
2017-Mar-23 09:31N 45°27' E 012°15'0 0.0
2017-Mar-23 08:30N 45°27' E 012°15'0 0.0
2017-Mar-23 07:33N 45°27' E 012°15'0 0.0
2017-Mar-23 06:33N 45°27' E 012°15'0 0.0
2017-Mar-23 05:28N 45°27' E 012°15'0 0.0
2017-Mar-23 04:30N 45°27' E 012°15'0 0.0
2017-Mar-23 03:25N 45°27' E 012°15'0 0.0
2017-Mar-23 02:24N 45°27' E 012°15'0 0.0
2017-Mar-23 01:33N 45°27' E 012°15'0 0.0
2017-Mar-23 00:31N 45°27' E 012°15'0 0.0
2017-Mar-22 23:29N 45°27' E 012°15'0 0.0
2017-Mar-22 22:29N 45°27' E 012°15'0 0.0
2017-Mar-22 21:33N 45°27' E 012°15'0 0.0
2017-Mar-22 20:32N 45°27' E 012°15'0 0.0
2017-Mar-22 19:33N 45°27' E 012°15'0 0.0
2017-Mar-22 18:30N 45°27' E 012°15'0 0.0
2017-Mar-22 17:33N 45°27' E 012°15'0 0.0
2017-Mar-22 16:32N 45°27' E 012°15'0 0.0
2017-Mar-22 15:32N 45°27' E 012°15'0 0.0
2017-Mar-22 14:33N 45°27' E 012°15'0 0.0
2017-Mar-22 13:32N 45°27' E 012°15'0 0.0
2017-Mar-22 12:25N 45°27' E 012°15'0 0.0
2017-Mar-22 11:29N 45°27' E 012°15'0 0.0
2017-Mar-22 10:31N 45°27' E 012°15'0 0.0
2017-Mar-22 09:32N 45°27' E 012°15'0 0.0
2017-Mar-22 08:27N 45°27' E 012°15'0 0.0
2017-Mar-22 01:07N 45°27' E 012°15'0 0.0
2017-Mar-22 00:34N 45°27' E 012°15'0 0.0
2017-Mar-21 23:32N 45°27' E 012°15'0 0.0
2017-Mar-21 22:33N 45°27' E 012°15'0 0.0
2017-Mar-21 21:31N 45°27' E 012°15'0 0.0
2017-Mar-21 20:31N 45°27' E 012°15'0 0.0
2017-Mar-21 19:31N 45°27' E 012°15'0 0.0
2017-Mar-21 18:32N 45°27' E 012°15'0 0.0
2017-Mar-21 17:31N 45°27' E 012°15'0 0.0
2017-Mar-21 16:31N 45°27' E 012°15'0 0.0
2017-Mar-21 15:32N 45°27' E 012°15'0 0.0
2017-Mar-21 14:31N 45°27' E 012°15'0 0.0
2017-Mar-21 13:34N 45°27' E 012°15'0 0.0
2017-Mar-21 12:31N 45°27' E 012°15'0 0.0
2017-Mar-21 11:34N 45°27' E 012°15'0 0.0
2017-Mar-21 10:32N 45°27' E 012°15'0 0.0
2017-Mar-21 07:05N 45°27' E 012°15'1 2.0
2017-Mar-21 06:33N 45°26' E 012°16'7 6.5
2017-Mar-21 05:33N 45°20' E 012°20'2 1.4
2017-Mar-21 04:28N 45°21' E 012°22'0 0.0
2017-Mar-21 03:32N 45°21' E 012°22'0 0.0
2017-Mar-21 02:24N 45°21' E 012°22'0 0.0
2017-Mar-21 00:31N 45°21' E 012°22'0 0.0
2017-Mar-20 22:25N 45°21' E 012°22'0 0.0
2017-Mar-20 18:20N 45°21' E 012°22'0 0.0
2017-Mar-20 17:21N 45°21' E 012°22'0 0.0
2017-Mar-20 16:33N 45°21' E 012°22'0 0.0
2017-Mar-20 15:32N 45°21' E 012°22'0 0.0
2017-Mar-20 14:32N 45°21' E 012°22'0 0.1
2017-Mar-20 13:34N 45°21' E 012°22'0 0.0
2017-Mar-20 12:32N 45°21' E 012°22'0 0.0
2017-Mar-20 11:32N 45°21' E 012°22'0 0.0
2017-Mar-20 10:25N 45°21' E 012°22'0 0.0
2017-Mar-20 09:27N 45°21' E 012°22'0 0.0
2017-Mar-20 08:32N 45°21' E 012°22'0 0.1
2017-Mar-20 07:32N 45°21' E 012°22'0 0.0
2017-Mar-20 06:28N 45°21' E 012°22'0 0.0
2017-Mar-20 04:28N 45°21' E 012°22'0 0.0
2017-Mar-20 03:32N 45°21' E 012°22'0 0.0
2017-Mar-20 02:33N 45°21' E 012°22'0 0.0
2017-Mar-20 01:31N 45°21' E 012°22'0 0.0
2017-Mar-20 00:28N 45°21' E 012°22'0 0.0
2017-Mar-19 23:31N 45°21' E 012°22'0 0.0
2017-Mar-19 22:32N 45°21' E 012°22'0 0.0
2017-Mar-19 21:32N 45°21' E 012°22'0 0.0
2017-Mar-19 20:32N 45°21' E 012°22'0 0.0
2017-Mar-19 19:32N 45°21' E 012°22'0 0.0
2017-Mar-19 18:31N 45°21' E 012°22'0 0.0
2017-Mar-19 17:32N 45°21' E 012°22'0 0.0
2017-Mar-19 16:31N 45°21' E 012°22'0 0.0
2017-Mar-19 15:32N 45°21' E 012°22'0 0.0
2017-Mar-19 14:31N 45°21' E 012°22'0 0.0
2017-Mar-19 13:34N 45°21' E 012°22'0 0.0
2017-Mar-19 12:33N 45°21' E 012°22'0 0.0
2017-Mar-19 11:33N 45°21' E 012°22'1 1.0
2017-Mar-19 10:33N 45°20' E 012°23'8 8.5
2017-Mar-19 09:33N 45°16' E 012°33'9 9.1
2017-Mar-19 08:33N 45°11' E 012°44'8 8.5
2017-Mar-19 07:33N 45°04' E 012°51'9 8.9
2017-Mar-19 06:33N 44°56' E 012°55'9 9.0
2017-Mar-19 05:33N 44°47' E 012°59'9 8.5
2017-Mar-19 04:31N 44°39' E 013°05'77 8.6
2017-Mar-18 19:33N 43°42' E 014°17'  
Track history (hours):
 
Tides and Currents Weather Stations Pressure Air Temp Water Temp Dewpoint Dewpoint Depression Visibility Wind Speed Wind Dir Waves Ship Positions

Zeynalabdin Tagiyev

Last reported at 2017-Mar-27 13:33 UTC. Time now 2017-Mar-29 17:10 UTC.
Position N 37°33' E 025°22'.

Length 140 m; draft 3.7 m.

Type: Cargo ship. MMSI: 256107000.

Date/timePositionNaut miles runAvg speedWind from/ knotsBaromVisibWave heightAir tempDewpointWater temp
2017-Mar-27 13:33N 37°33' E 025°22'7 7.1
2017-Mar-27 12:33N 37°29' E 025°14'17 8.3
2017-Mar-27 10:32N 37°19' E 024°58'8 8.3
2017-Mar-27 09:33N 37°13' E 024°51'  
2017-Mar-24 02:15N 44°03' E 013°28'7 9.6
2017-Mar-24 01:28N 44°08' E 013°20'38 9.6
2017-Mar-23 21:33N 44°42' E 012°59'9 9.4
2017-Mar-23 20:33N 44°51' E 012°54'9 8.8
2017-Mar-23 19:33N 44°59' E 012°48'9 8.9
2017-Mar-23 18:33N 45°06' E 012°42'9 9.0
2017-Mar-23 17:33N 45°12' E 012°31'9 9.2
2017-Mar-23 16:33N 45°19' E 012°23'7 6.7
2017-Mar-23 15:33N 45°23' E 012°16'4 4.0
2017-Mar-23 14:32N 45°27' E 012°15'0 0.0
2017-Mar-23 13:31N 45°27' E 012°15'0 0.0
2017-Mar-23 12:29N 45°27' E 012°15'0 0.0
2017-Mar-23 11:32N 45°27' E 012°15'0 0.0
2017-Mar-23 10:32N 45°27' E 012°15'0 0.0
2017-Mar-23 09:31N 45°27' E 012°15'0 0.0
2017-Mar-23 08:30N 45°27' E 012°15'0 0.0
2017-Mar-23 07:33N 45°27' E 012°15'0 0.0
2017-Mar-23 06:33N 45°27' E 012°15'0 0.0
2017-Mar-23 05:28N 45°27' E 012°15'0 0.0
2017-Mar-23 04:30N 45°27' E 012°15'0 0.0
2017-Mar-23 03:25N 45°27' E 012°15'0 0.0
2017-Mar-23 02:24N 45°27' E 012°15'0 0.0
2017-Mar-23 01:33N 45°27' E 012°15'0 0.0
2017-Mar-23 00:31N 45°27' E 012°15'0 0.0
2017-Mar-22 23:29N 45°27' E 012°15'0 0.0
2017-Mar-22 22:29N 45°27' E 012°15'0 0.0
2017-Mar-22 21:33N 45°27' E 012°15'0 0.0
2017-Mar-22 20:32N 45°27' E 012°15'0 0.0
2017-Mar-22 19:33N 45°27' E 012°15'0 0.0
2017-Mar-22 18:30N 45°27' E 012°15'0 0.0
2017-Mar-22 17:33N 45°27' E 012°15'0 0.0
2017-Mar-22 16:32N 45°27' E 012°15'0 0.0
2017-Mar-22 15:32N 45°27' E 012°15'0 0.0
2017-Mar-22 14:33N 45°27' E 012°15'0 0.0
2017-Mar-22 13:32N 45°27' E 012°15'0 0.0
2017-Mar-22 12:25N 45°27' E 012°15'0 0.0
2017-Mar-22 11:29N 45°27' E 012°15'0 0.0
2017-Mar-22 10:31N 45°27' E 012°15'0 0.0
2017-Mar-22 09:32N 45°27' E 012°15'0 0.0
2017-Mar-22 08:27N 45°27' E 012°15'0 0.0
2017-Mar-22 01:07N 45°27' E 012°15'0 0.0
2017-Mar-22 00:34N 45°27' E 012°15'0 0.0
2017-Mar-21 23:32N 45°27' E 012°15'0 0.0
2017-Mar-21 22:33N 45°27' E 012°15'0 0.0
2017-Mar-21 21:31N 45°27' E 012°15'0 0.0
2017-Mar-21 20:31N 45°27' E 012°15'0 0.0
2017-Mar-21 19:31N 45°27' E 012°15'0 0.0
2017-Mar-21 18:32N 45°27' E 012°15'0 0.0
2017-Mar-21 17:31N 45°27' E 012°15'0 0.0
2017-Mar-21 16:31N 45°27' E 012°15'0 0.0
2017-Mar-21 15:32N 45°27' E 012°15'0 0.0
2017-Mar-21 14:31N 45°27' E 012°15'0 0.0
2017-Mar-21 13:34N 45°27' E 012°15'0 0.0
2017-Mar-21 12:31N 45°27' E 012°15'0 0.0
2017-Mar-21 11:34N 45°27' E 012°15'0 0.0
2017-Mar-21 10:32N 45°27' E 012°15'0 0.0
2017-Mar-21 07:05N 45°27' E 012°15'1 2.0
2017-Mar-21 06:33N 45°26' E 012°16'7 6.5
2017-Mar-21 05:33N 45°20' E 012°20'2 1.4
2017-Mar-21 04:28N 45°21' E 012°22'0 0.0
2017-Mar-21 03:32N 45°21' E 012°22'0 0.0
2017-Mar-21 02:24N 45°21' E 012°22'0 0.0
2017-Mar-21 00:31N 45°21' E 012°22'0 0.0
2017-Mar-20 22:25N 45°21' E 012°22'0 0.0
2017-Mar-20 18:20N 45°21' E 012°22'0 0.0
2017-Mar-20 17:21N 45°21' E 012°22'0 0.0
2017-Mar-20 16:33N 45°21' E 012°22'0 0.0
2017-Mar-20 15:32N 45°21' E 012°22'0 0.0
2017-Mar-20 14:32N 45°21' E 012°22'0 0.1
2017-Mar-20 13:34N 45°21' E 012°22'0 0.0
2017-Mar-20 12:32N 45°21' E 012°22'0 0.0
2017-Mar-20 11:32N 45°21' E 012°22'0 0.0
2017-Mar-20 10:25N 45°21' E 012°22'0 0.0
2017-Mar-20 09:27N 45°21' E 012°22'0 0.0
2017-Mar-20 08:32N 45°21' E 012°22'0 0.1
2017-Mar-20 07:32N 45°21' E 012°22'0 0.0
2017-Mar-20 06:28N 45°21' E 012°22'0 0.0
2017-Mar-20 04:28N 45°21' E 012°22'0 0.0
2017-Mar-20 03:32N 45°21' E 012°22'0 0.0
2017-Mar-20 02:33N 45°21' E 012°22'0 0.0
2017-Mar-20 01:31N 45°21' E 012°22'0 0.0
2017-Mar-20 00:28N 45°21' E 012°22'0 0.0
2017-Mar-19 23:31N 45°21' E 012°22'0 0.0
2017-Mar-19 22:32N 45°21' E 012°22'0 0.0
2017-Mar-19 21:32N 45°21' E 012°22'0 0.0
2017-Mar-19 20:32N 45°21' E 012°22'0 0.0
2017-Mar-19 19:32N 45°21' E 012°22'0 0.0
2017-Mar-19 18:31N 45°21' E 012°22'0 0.0
2017-Mar-19 17:32N 45°21' E 012°22'0 0.0
2017-Mar-19 16:31N 45°21' E 012°22'0 0.0
2017-Mar-19 15:32N 45°21' E 012°22'0 0.0
2017-Mar-19 14:31N 45°21' E 012°22'0 0.0
2017-Mar-19 13:34N 45°21' E 012°22'0 0.0
2017-Mar-19 12:33N 45°21' E 012°22'0 0.0
2017-Mar-19 11:33N 45°21' E 012°22'1 1.0
2017-Mar-19 10:33N 45°20' E 012°23'8 8.5
2017-Mar-19 09:33N 45°16' E 012°33'9 9.1
2017-Mar-19 08:33N 45°11' E 012°44'8 8.5
2017-Mar-19 07:33N 45°04' E 012°51'9 8.9
2017-Mar-19 06:33N 44°56' E 012°55'9 9.0
2017-Mar-19 05:33N 44°47' E 012°59'9 8.5
2017-Mar-19 04:31N 44°39' E 013°05'77 8.6
2017-Mar-18 19:33N 43°42' E 014°17'  

Dump ship's entire track history